createdAt,value
2022-12-09T00:01:13.243Z,8.93
2022-12-09T00:03:41.364Z,7.40
2022-12-09T00:06:12.376Z,7.38
2022-12-09T00:08:39.511Z,6.18
2022-12-09T00:11:07.859Z,8.95
2022-12-09T00:13:35.263Z,4.65
2022-12-09T00:16:10.224Z,6.13
2022-12-09T00:18:37.604Z,3.75
2022-12-09T00:21:22.648Z,4.43
2022-12-09T00:23:50.839Z,4.35
2022-12-09T00:26:19.243Z,4.53
2022-12-09T00:28:46.636Z,9.43
2022-12-09T00:31:16.828Z,4.43
2022-12-09T00:33:44.644Z,5.22
2022-12-09T00:36:17.480Z,5.88
2022-12-09T00:38:44.620Z,3.60
2022-12-09T00:41:12.832Z,3.33
2022-12-09T00:43:40.792Z,4.22
2022-12-09T00:46:08.212Z,4.05
2022-12-09T00:48:37.661Z,6.20
2022-12-09T00:51:06.722Z,2.78
2022-12-09T00:53:33.994Z,6.95
2022-12-09T00:56:01.728Z,5.47
2022-12-09T00:58:29.090Z,7.28
2022-12-09T01:00:56.425Z,6.38
2022-12-09T01:03:24.177Z,3.47
2022-12-09T01:05:51.633Z,4.57
2022-12-09T01:08:19.462Z,6.22
2022-12-09T01:10:46.832Z,8.90
2022-12-09T01:13:15.374Z,6.40
2022-12-09T01:15:43.167Z,10.98
2022-12-09T01:18:12.080Z,8.52
2022-12-09T01:20:39.412Z,10.30
2022-12-09T01:23:06.614Z,4.72
2022-12-09T01:25:33.691Z,6.10
2022-12-09T01:28:01.007Z,5.60
2022-12-09T01:30:28.434Z,7.38
2022-12-09T01:32:55.606Z,10.00
2022-12-09T01:35:22.902Z,6.95
2022-12-09T01:37:50.635Z,5.50
2022-12-09T01:40:19.229Z,8.43
2022-12-09T01:42:46.883Z,8.82
2022-12-09T01:45:23.616Z,7.47
2022-12-09T01:48:28.530Z,8.50
2022-12-09T01:50:58.355Z,8.13
2022-12-09T01:53:28.763Z,6.22
2022-12-09T01:56:00.188Z,6.80
2022-12-09T01:58:28.433Z,6.35
2022-12-09T02:00:55.832Z,9.80
2022-12-09T02:03:23.410Z,4.45
2022-12-09T02:05:50.624Z,6.82
2022-12-09T02:08:20.250Z,6.78
2022-12-09T02:11:14.269Z,7.57
2022-12-09T02:13:59.802Z,3.97
2022-12-09T02:16:32.466Z,4.40
2022-12-09T02:19:08.449Z,4.22
2022-12-09T02:21:45.890Z,3.85
2022-12-09T02:24:20.703Z,5.32
2022-12-09T02:27:05.622Z,6.13
2022-12-09T02:30:00.944Z,6.05
2022-12-09T02:32:34.256Z,4.50
2022-12-09T02:35:18.043Z,7.90
2022-12-09T02:38:20.906Z,8.93
2022-12-09T02:40:56.689Z,9.52
2022-12-09T02:43:28.679Z,12.23
2022-12-09T02:45:58.755Z,9.45
2022-12-09T02:48:34.708Z,12.85
2022-12-09T02:51:04.914Z,12.20
2022-12-09T02:53:33.264Z,9.57
2022-12-09T02:56:01.111Z,11.02
2022-12-09T02:58:28.172Z,9.77
2022-12-09T03:00:57.360Z,11.32
2022-12-09T03:03:25.569Z,11.27
2022-12-09T03:06:02.232Z,14.07
2022-12-09T03:08:53.244Z,10.95
2022-12-09T03:11:23.723Z,9.57
2022-12-09T03:14:10.417Z,11.68
2022-12-09T03:17:21.816Z,7.40
2022-12-09T03:20:00.194Z,10.77
2022-12-09T03:22:30.229Z,9.40
2022-12-09T03:25:03.611Z,14.23
2022-12-09T03:27:42.362Z,13.05
2022-12-09T03:30:11.581Z,10.43
2022-12-09T03:32:41.871Z,13.50
2022-12-09T03:35:13.390Z,18.00
2022-12-09T03:37:42.199Z,11.18
2022-12-09T03:40:18.752Z,12.35
2022-12-09T03:43:10.525Z,14.93
2022-12-09T03:45:41.692Z,12.15
2022-12-09T03:48:22.433Z,13.45
2022-12-09T03:51:06.868Z,13.45
2022-12-09T03:56:21.054Z,8.45
2022-12-09T03:58:51.191Z,12.00
2022-12-09T04:01:19.848Z,8.18
2022-12-09T04:03:53.159Z,21.33
2022-12-09T04:06:20.784Z,10.93
2022-12-09T04:08:48.025Z,8.57
2022-12-09T04:11:15.468Z,7.97
2022-12-09T04:13:42.576Z,9.82
2022-12-09T04:16:10.149Z,9.75
2022-12-09T04:18:37.414Z,8.85
2022-12-09T04:21:13.158Z,6.32
2022-12-09T04:23:43.241Z,9.35
2022-12-09T04:26:15.680Z,8.27
2022-12-09T04:28:42.857Z,8.82
2022-12-09T04:31:15.528Z,8.65
2022-12-09T04:33:45.044Z,8.73
2022-12-09T04:36:14.738Z,8.77
2022-12-09T04:38:42.877Z,10.55
2022-12-09T04:41:11.101Z,12.77
2022-12-09T04:43:38.422Z,10.43
2022-12-09T04:46:08.140Z,5.78
2022-12-09T04:48:35.588Z,15.90
2022-12-09T04:51:03.240Z,10.00
2022-12-09T04:53:30.461Z,8.98
2022-12-09T04:56:03.198Z,10.13
2022-12-09T04:58:31.157Z,10.55
2022-12-09T05:00:58.892Z,8.90
2022-12-09T05:03:26.195Z,15.85
2022-12-09T05:05:53.500Z,13.05
2022-12-09T05:08:21.164Z,10.68
2022-12-09T05:10:50.549Z,10.20
2022-12-09T05:13:18.297Z,12.45
2022-12-09T05:15:45.695Z,9.55
2022-12-09T05:18:13.407Z,9.38
2022-12-09T05:20:41.222Z,11.95
2022-12-09T05:23:09.878Z,10.80
2022-12-09T05:25:37.907Z,13.52
2022-12-09T05:28:05.222Z,18.10
2022-12-09T05:30:32.451Z,9.13
2022-12-09T05:32:59.923Z,9.77
2022-12-09T05:35:28.941Z,10.10
2022-12-09T05:37:56.157Z,7.53
2022-12-09T05:40:23.626Z,15.88
2022-12-09T05:42:50.723Z,8.07
2022-12-09T05:45:18.103Z,7.15
2022-12-09T05:47:45.595Z,7.60
2022-12-09T05:50:13.587Z,6.03
2022-12-09T05:52:40.995Z,7.88
2022-12-09T05:55:10.399Z,7.93
2022-12-09T05:57:38.020Z,6.43
2022-12-09T06:00:07.304Z,9.35
2022-12-09T06:02:35.011Z,11.60
2022-12-09T06:05:03.254Z,12.30
2022-12-09T06:07:31.175Z,12.10
2022-12-09T06:09:58.790Z,7.50
2022-12-09T06:12:26.282Z,9.80
2022-12-09T06:14:53.820Z,5.32
2022-12-09T06:17:21.487Z,9.27
2022-12-09T06:19:49.042Z,9.05
2022-12-09T06:22:16.928Z,9.70
2022-12-09T06:24:44.467Z,9.68
2022-12-09T06:27:11.701Z,9.40
2022-12-09T06:29:39.004Z,8.15
2022-12-09T06:32:06.405Z,5.22
2022-12-09T06:34:33.785Z,6.60
2022-12-09T06:37:02.070Z,6.70
2022-12-09T06:39:29.238Z,7.28
2022-12-09T06:41:56.574Z,10.10
2022-12-09T06:44:24.462Z,6.00
2022-12-09T06:46:52.066Z,4.10
2022-12-09T06:49:19.404Z,4.85
2022-12-09T06:51:47.139Z,7.72
2022-12-09T06:54:14.696Z,6.13
2022-12-09T06:56:41.945Z,5.18
2022-12-09T06:59:10.765Z,3.78
2022-12-09T07:01:38.734Z,6.15
2022-12-09T07:04:06.386Z,8.75
2022-12-09T07:06:42.500Z,5.18
2022-12-09T07:09:19.684Z,5.78
2022-12-09T07:11:48.104Z,5.85
2022-12-09T07:14:17.005Z,12.10
2022-12-09T07:16:44.715Z,6.18
2022-12-09T07:19:31.334Z,12.45
2022-12-09T07:21:58.616Z,5.60
2022-12-09T07:24:26.626Z,6.22
2022-12-09T07:26:53.906Z,4.57
2022-12-09T07:29:29.697Z,5.47
2022-12-09T07:31:57.817Z,6.10
2022-12-09T07:34:25.147Z,3.83
2022-12-09T07:36:52.642Z,6.05
2022-12-09T07:39:21.821Z,2.30
2022-12-09T07:41:57.195Z,9.75
2022-12-09T07:44:28.446Z,3.17
2022-12-09T07:46:57.368Z,5.57
2022-12-09T07:49:25.351Z,3.97
2022-12-09T07:51:53.024Z,3.80
2022-12-09T07:54:20.672Z,5.47
2022-12-09T07:56:48.938Z,4.38
2022-12-09T07:59:17.725Z,5.60
2022-12-09T08:01:45.404Z,3.22
2022-12-09T08:04:13.404Z,4.20
2022-12-09T08:06:41.295Z,6.57
2022-12-09T08:09:11.268Z,4.40
2022-12-09T08:11:38.783Z,3.97
2022-12-09T08:14:12.643Z,4.07
2022-12-09T08:16:42.590Z,6.50
2022-12-09T08:19:11.246Z,6.00
2022-12-09T08:21:38.997Z,7.03
2022-12-09T08:24:08.073Z,6.05
2022-12-09T08:26:37.614Z,9.98
2022-12-09T08:29:09.174Z,10.43
2022-12-09T08:31:40.915Z,6.50
2022-12-09T08:34:09.797Z,10.18
2022-12-09T08:36:37.777Z,5.65
2022-12-09T08:39:06.112Z,5.50
2022-12-09T08:41:37.814Z,5.18
2022-12-09T08:44:14.669Z,5.95
2022-12-09T08:46:44.587Z,3.08
2022-12-09T08:49:13.484Z,3.15
2022-12-09T08:51:41.310Z,3.03
2022-12-09T08:54:08.635Z,3.50
2022-12-09T08:56:36.097Z,6.45
2022-12-09T08:59:03.897Z,6.50
2022-12-09T09:01:38.153Z,4.32
2022-12-09T09:04:09.560Z,9.13
2022-12-09T09:06:39.507Z,3.70
2022-12-09T09:09:08.201Z,3.03
2022-12-09T09:11:36.558Z,6.40
2022-12-09T09:14:09.333Z,7.05
2022-12-09T09:16:39.785Z,7.03
2022-12-09T09:19:08.065Z,6.38
2022-12-09T09:21:35.864Z,7.28
2022-12-09T09:24:03.885Z,6.30
2022-12-09T09:26:31.206Z,5.60
2022-12-09T09:28:58.771Z,6.55
2022-12-09T09:31:26.680Z,7.43
2022-12-09T09:33:54.024Z,4.20
2022-12-09T09:36:24.748Z,7.35
2022-12-09T09:38:55.295Z,4.03
2022-12-09T09:41:33.540Z,4.65
2022-12-09T09:44:02.057Z,3.33
2022-12-09T09:46:44.008Z,7.63
2022-12-09T09:49:27.885Z,5.47
2022-12-09T09:51:55.673Z,7.57
2022-12-09T09:54:23.484Z,4.57
2022-12-09T09:56:55.237Z,6.22
2022-12-09T09:59:28.617Z,3.28
2022-12-09T10:02:21.711Z,5.15
2022-12-09T10:05:27.551Z,4.25
2022-12-09T10:08:19.892Z,9.75
2022-12-09T10:11:02.662Z,2.97
2022-12-09T10:14:07.256Z,3.63
2022-12-09T10:17:02.605Z,4.90
2022-12-09T10:19:34.456Z,2.65
2022-12-09T10:22:13.666Z,4.15
2022-12-09T10:24:48.531Z,5.57
2022-12-09T10:27:21.843Z,7.15
2022-12-09T10:30:14.165Z,18.92
2022-12-09T10:32:42.217Z,12.05
2022-12-09T10:35:22.634Z,10.32
2022-12-09T10:37:55.098Z,8.85
2022-12-09T10:40:32.187Z,6.70
2022-12-09T10:43:19.199Z,5.80
2022-12-09T10:48:43.244Z,10.55
2022-12-09T10:51:16.528Z,11.75
2022-12-09T10:53:47.107Z,5.72
2022-12-09T10:56:30.962Z,4.63
2022-12-09T10:59:16.629Z,7.32
2022-12-09T11:02:02.053Z,4.57
2022-12-09T11:04:36.185Z,3.90
2022-12-09T11:09:52.761Z,5.90
2022-12-09T11:12:40.482Z,4.03
2022-12-09T11:15:20.048Z,4.38
2022-12-09T11:18:03.599Z,5.72
2022-12-09T11:20:33.704Z,9.05
2022-12-09T11:23:16.304Z,12.10
2022-12-09T11:25:59.436Z,10.35
2022-12-09T11:28:36.837Z,14.63
2022-12-09T11:31:33.735Z,16.10
2022-12-09T11:34:05.542Z,11.52
2022-12-09T11:36:40.594Z,8.95
2022-12-09T11:39:19.796Z,11.35
2022-12-09T11:42:12.941Z,10.98
2022-12-09T11:44:59.526Z,3.33
2022-12-09T11:48:20.313Z,6.67
2022-12-09T11:50:31.979Z,6.07
2022-12-09T11:53:23.207Z,4.18
2022-12-09T11:55:55.670Z,5.80
2022-12-09T11:58:31.067Z,5.45
2022-12-09T12:01:07.735Z,4.20
2022-12-09T12:03:43.411Z,3.25
2022-12-09T12:06:36.482Z,5.80
2022-12-09T12:09:11.374Z,5.90
2022-12-09T12:12:07.240Z,7.30
2022-12-09T12:14:37.238Z,2.47
2022-12-09T12:17:27.632Z,4.00
2022-12-09T12:19:56.688Z,3.75
2022-12-09T12:22:38.245Z,4.43
2022-12-09T12:25:20.384Z,3.60
2022-12-09T12:28:13.623Z,4.32
2022-12-09T12:30:50.826Z,3.03
2022-12-09T12:34:16.267Z,5.88
2022-12-09T12:36:54.646Z,2.15
2022-12-09T12:39:42.632Z,3.67
2022-12-09T12:42:33.294Z,3.72
2022-12-09T12:45:33.983Z,3.55
2022-12-09T12:48:07.993Z,2.42
2022-12-09T12:50:46.971Z,2.55
2022-12-09T12:53:30.883Z,3.83
2022-12-09T12:56:03.783Z,4.60
2022-12-09T12:58:39.405Z,3.20
2022-12-09T13:01:36.380Z,1.80
2022-12-09T13:04:26.864Z,2.45
2022-12-09T13:07:08.448Z,1.85
2022-12-09T13:09:43.088Z,1.45
2022-12-09T13:13:01.762Z,3.22
2022-12-09T13:15:45.579Z,2.90
2022-12-09T13:18:17.690Z,4.47
2022-12-09T13:20:52.045Z,3.05
2022-12-09T13:23:56.495Z,2.22
2022-12-09T13:26:56.844Z,1.42
2022-12-09T13:30:06.178Z,2.17
2022-12-09T13:33:01.502Z,1.42
2022-12-09T13:35:41.423Z,1.55
2022-12-09T13:38:42.886Z,4.50
2022-12-09T13:41:30.941Z,5.57
2022-12-09T13:44:07.352Z,9.25
2022-12-09T13:46:35.473Z,15.05
2022-12-09T13:49:24.369Z,19.45
2022-12-09T13:51:54.325Z,18.80
2022-12-09T13:54:25.407Z,17.35
2022-12-09T13:57:09.540Z,13.73
2022-12-09T13:59:59.600Z,10.25
2022-12-09T14:02:39.103Z,7.05
2022-12-09T14:05:18.522Z,7.80
2022-12-09T14:08:14.350Z,6.97
2022-12-09T14:10:50.574Z,13.93
2022-12-09T14:13:29.905Z,9.85
2022-12-09T14:16:33.876Z,10.10
2022-12-09T14:19:51.320Z,10.73
2022-12-09T14:22:22.062Z,14.73
2022-12-09T14:24:56.660Z,4.82
2022-12-09T14:27:32.090Z,2.92
2022-12-09T14:30:02.122Z,4.53
2022-12-09T14:32:34.981Z,4.25
2022-12-09T14:35:11.143Z,5.70
2022-12-09T14:37:56.793Z,7.85
2022-12-09T14:40:56.251Z,4.35
2022-12-09T14:43:51.388Z,6.93
2022-12-09T14:46:23.602Z,8.05
2022-12-09T14:48:58.921Z,4.63
2022-12-09T14:51:37.773Z,7.53
2022-12-09T14:54:16.708Z,11.82
2022-12-09T14:56:50.503Z,6.53
2022-12-09T14:59:21.353Z,6.10
2022-12-09T15:01:49.587Z,6.57
2022-12-09T15:04:33.756Z,8.05
2022-12-09T15:07:23.491Z,6.50
2022-12-09T15:09:56.430Z,7.25
2022-12-09T15:12:45.705Z,2.28
2022-12-09T15:15:34.859Z,3.70
2022-12-09T15:18:22.089Z,6.93
2022-12-09T15:20:52.187Z,6.45
2022-12-09T15:23:21.109Z,7.30
2022-12-09T15:26:04.356Z,7.90
2022-12-09T15:28:33.920Z,5.25
2022-12-09T15:31:17.940Z,6.80
2022-12-09T15:33:47.032Z,9.18
2022-12-09T15:36:19.524Z,5.78
2022-12-09T15:38:51.853Z,10.38
2022-12-09T15:41:38.760Z,10.02
2022-12-09T15:44:13.789Z,5.60
2022-12-09T15:46:45.750Z,11.30
2022-12-09T15:49:16.122Z,5.70
2022-12-09T15:51:44.480Z,8.05
2022-12-09T15:54:19.238Z,11.60
2022-12-09T15:56:54.092Z,10.05
2022-12-09T15:59:34.011Z,7.07
2022-12-09T16:02:02.199Z,7.35
2022-12-09T16:04:34.689Z,9.52
2022-12-09T16:07:15.433Z,10.35
2022-12-09T16:10:05.842Z,9.32
2022-12-09T16:12:34.720Z,11.40
2022-12-09T16:15:02.605Z,12.15
2022-12-09T16:17:32.448Z,6.40
2022-12-09T16:20:08.132Z,6.47
2022-12-09T16:22:35.414Z,11.40
2022-12-09T16:25:20.701Z,12.40
2022-12-09T16:27:51.277Z,5.68
2022-12-09T16:30:21.633Z,9.15
2022-12-09T16:32:53.350Z,8.10
2022-12-09T16:35:25.612Z,6.85
2022-12-09T16:37:58.734Z,10.73
2022-12-09T16:40:25.727Z,6.30
2022-12-09T16:42:54.872Z,4.43
2022-12-09T16:45:24.795Z,5.68
2022-12-09T16:47:55.763Z,6.05
2022-12-09T16:50:26.468Z,7.00
2022-12-09T16:52:53.984Z,6.13
2022-12-09T16:55:24.502Z,9.07
2022-12-09T16:57:51.611Z,11.63
2022-12-09T17:00:19.155Z,10.38
2022-12-09T17:02:50.862Z,9.43
2022-12-09T17:05:18.002Z,15.75
2022-12-09T17:07:45.051Z,15.98
2022-12-09T17:10:16.502Z,16.40
2022-12-09T17:12:45.166Z,14.80
2022-12-09T17:15:17.348Z,11.93
2022-12-09T17:17:48.657Z,5.68
2022-12-09T17:20:16.661Z,9.32
2022-12-09T17:22:43.871Z,8.05
2022-12-09T17:25:11.023Z,30.02
2022-12-09T17:27:38.214Z,55.17
2022-12-09T17:30:05.943Z,52.63
2022-12-09T17:32:33.243Z,47.33
2022-12-09T17:35:00.373Z,34.38
2022-12-09T17:37:27.384Z,40.67
2022-12-09T17:40:01.577Z,42.50
2022-12-09T17:42:30.447Z,43.72
2022-12-09T17:44:57.481Z,37.38
2022-12-09T17:47:24.593Z,35.22
2022-12-09T17:49:51.608Z,31.17
2022-12-09T17:52:18.825Z,28.00
2022-12-09T17:54:47.060Z,15.40
2022-12-09T17:57:14.308Z,12.75
2022-12-09T17:59:41.391Z,12.98
2022-12-09T18:02:11.019Z,15.45
2022-12-09T18:04:38.081Z,14.52
2022-12-09T18:07:05.152Z,13.52
2022-12-09T18:09:32.243Z,14.10
2022-12-09T18:11:59.398Z,11.32
2022-12-09T18:14:26.613Z,11.82
2022-12-09T18:16:53.607Z,10.70
2022-12-09T18:19:23.641Z,17.00
2022-12-09T18:21:51.205Z,11.43
2022-12-09T18:24:18.845Z,11.88
2022-12-09T18:26:46.065Z,15.10
2022-12-09T18:29:13.948Z,8.35
2022-12-09T18:31:41.753Z,32.33
2022-12-09T18:34:08.868Z,22.40
2022-12-09T18:36:35.892Z,15.73
2022-12-09T18:39:03.662Z,14.15
2022-12-09T18:41:31.923Z,15.38
2022-12-09T18:44:01.790Z,13.85
2022-12-09T18:46:35.132Z,11.27
2022-12-09T18:49:08.263Z,12.07
2022-12-09T18:51:35.654Z,11.00
2022-12-09T18:54:04.484Z,14.30
2022-12-09T18:56:32.254Z,12.38
2022-12-09T18:59:08.769Z,13.90
2022-12-09T19:01:40.154Z,10.95
2022-12-09T19:04:13.317Z,10.52
2022-12-09T19:06:42.733Z,13.68
2022-12-09T19:09:15.479Z,9.40
2022-12-09T19:11:44.388Z,7.28
2022-12-09T19:14:11.615Z,6.50
2022-12-09T19:16:39.418Z,10.35
2022-12-09T19:19:09.896Z,8.38
2022-12-09T19:21:37.994Z,11.90
2022-12-09T19:24:05.421Z,15.32
2022-12-09T19:26:35.610Z,13.27
2022-12-09T19:29:06.830Z,9.98
2022-12-09T19:31:37.312Z,12.70
2022-12-09T19:34:08.059Z,12.18
2022-12-09T19:36:35.286Z,12.82
2022-12-09T19:39:04.758Z,14.13
2022-12-09T19:41:31.931Z,6.70
2022-12-09T19:44:00.366Z,14.25
2022-12-09T19:46:41.989Z,13.13
2022-12-09T19:49:13.561Z,12.65
2022-12-09T19:51:41.269Z,10.35
2022-12-09T19:54:08.856Z,9.85
2022-12-09T19:56:36.673Z,7.18
2022-12-09T19:59:04.406Z,10.13
2022-12-09T20:01:35.936Z,5.18
2022-12-09T20:04:46.893Z,6.13
2022-12-09T20:07:07.883Z,5.32
2022-12-09T20:09:36.471Z,5.75
2022-12-09T20:12:03.817Z,4.50
2022-12-09T20:14:30.811Z,6.90
2022-12-09T20:16:57.915Z,7.82
2022-12-09T20:19:24.965Z,10.85
2022-12-09T20:21:51.996Z,11.13
2022-12-09T20:24:19.084Z,9.63
2022-12-09T20:26:46.154Z,7.88
2022-12-09T20:29:13.406Z,9.70
2022-12-09T20:31:41.750Z,9.77
2022-12-09T20:34:18.315Z,10.98
2022-12-09T20:36:46.022Z,8.68
2022-12-09T20:39:18.752Z,11.43
2022-12-09T20:41:46.369Z,4.38
2022-12-09T20:44:14.516Z,7.00
2022-12-09T20:46:45.332Z,6.55
2022-12-09T20:49:12.389Z,6.95
2022-12-09T20:51:40.560Z,8.43
2022-12-09T20:54:10.163Z,9.05
2022-12-09T20:56:37.626Z,4.90
2022-12-09T20:59:05.454Z,9.52
2022-12-09T21:01:37.539Z,5.00
2022-12-09T21:04:07.281Z,6.50
2022-12-09T21:06:37.730Z,4.22
2022-12-09T21:09:09.182Z,6.50
2022-12-09T21:11:37.090Z,6.65
2022-12-09T21:14:07.046Z,6.63
2022-12-09T21:16:37.963Z,8.07
2022-12-09T21:19:07.464Z,10.07
2022-12-09T21:21:36.303Z,4.60
2022-12-09T21:24:04.330Z,3.95
2022-12-09T21:26:31.661Z,9.52
2022-12-09T21:29:01.060Z,8.85
2022-12-09T21:31:32.149Z,8.02
2022-12-09T21:34:04.136Z,4.93
2022-12-09T21:36:34.194Z,6.15
2022-12-09T21:39:02.061Z,5.68
2022-12-09T21:41:31.627Z,6.38
2022-12-09T21:43:59.082Z,6.40
2022-12-09T21:46:32.822Z,5.78
2022-12-09T21:51:32.314Z,6.88
2022-12-09T21:53:59.592Z,7.47
2022-12-09T21:56:30.486Z,7.13
2022-12-09T21:58:59.527Z,6.45
2022-12-09T22:01:35.039Z,8.98
2022-12-09T22:04:03.876Z,18.40
2022-12-09T22:06:31.255Z,12.48
2022-12-09T22:08:59.944Z,14.27
2022-12-09T22:11:29.796Z,12.65
2022-12-09T22:13:59.090Z,7.85
2022-12-09T22:16:29.199Z,11.25
2022-12-09T22:18:58.432Z,10.07
2022-12-09T22:21:28.230Z,13.85
2022-12-09T22:23:58.442Z,5.82
2022-12-09T22:26:26.124Z,10.65
2022-12-09T22:28:53.792Z,12.20
2022-12-09T22:31:23.586Z,7.85
2022-12-09T22:33:52.567Z,9.48
2022-12-09T22:36:20.536Z,6.40
2022-12-09T22:38:48.277Z,3.78
2022-12-09T22:41:19.588Z,6.68
2022-12-09T22:43:46.741Z,5.43
2022-12-09T22:46:17.733Z,4.68
2022-12-09T22:48:45.212Z,5.20
2022-12-09T22:51:15.961Z,6.95
2022-12-09T22:53:43.602Z,3.85
2022-12-09T22:56:12.408Z,5.05
2022-12-09T22:58:40.021Z,6.13
2022-12-09T23:01:24.517Z,4.82
2022-12-09T23:03:52.035Z,5.93
2022-12-09T23:06:19.111Z,6.20
2022-12-09T23:08:46.432Z,6.18
2022-12-09T23:11:19.491Z,1.63
2022-12-09T23:13:46.585Z,2.60
2022-12-09T23:16:18.495Z,4.22
2022-12-09T23:18:45.750Z,3.38
2022-12-09T23:21:24.688Z,4.88
2022-12-09T23:23:57.464Z,4.32
2022-12-09T23:26:26.205Z,2.20
2022-12-09T23:28:55.796Z,4.35
2022-12-09T23:31:25.424Z,3.92
2022-12-09T23:33:53.489Z,3.90
2022-12-09T23:36:24.373Z,3.75
2022-12-09T23:38:53.755Z,2.72
2022-12-09T23:41:22.902Z,2.05
2022-12-09T23:43:50.635Z,3.30
2022-12-09T23:46:26.680Z,2.80
2022-12-09T23:48:54.342Z,1.95
2022-12-09T23:51:32.153Z,2.92
2022-12-09T23:54:02.664Z,4.45
2022-12-09T23:56:32.536Z,4.82
2022-12-09T23:59:04.584Z,4.20
